Bewolking Meer informatie Parkstad Weather Satellite


Neerslag Meer informatie Parkstad Rain Snow Radar


Onweersbuien Meer informatie Parkstad Lighntning


24/7 Weercamera Meer informatie Parkstad Weathercam


Natuurbrandrisico
CBI






Het weer levert geen direct gevaar op in Parkstad (045)    Er zijn geen waarschuwingen afgegeven voor Parkstad (045)

METAR rapporten vliegvelden

   
EHBK - Beek Nederland
Gewijzigd: 23-06-2018 17:55
Gedeeltelijk bewolkt  
Gedeeltelijk bewolkt  
   Wind: varieert 3.7 km/h
Wind: varieert 3.7 km/h
Temperatuur: 18°C
Dauwpunt: 9°C
Vochtigheid: 56%
Barometer: 1026 hPa
Satelliet beelden: Gedeeltelijk bewolkt
Zicht: meer dan 10 km
Bewolking: Gedeeltelijk bewolkt
EHBK 231555Z AUTO VRB02KT 9999 NSC 18/09 Q1026 NOSIG
EHBK - Maastricht Nederland
Gewijzigd: 23-06-2018 17:55
Gedeeltelijk bewolkt  
Gedeeltelijk bewolkt  
   Wind: varieert 3.7 km/h
Wind: varieert 3.7 km/h
Temperatuur: 18°C
Dauwpunt: 9°C
Vochtigheid: 56%
Barometer: 1026 hPa
Satelliet beelden: Gedeeltelijk bewolkt
Zicht: meer dan 10 km
Bewolking: Gedeeltelijk bewolkt
EHBK 231555Z AUTO VRB02KT 9999 NSC 18/09 Q1026 NOSIG
EBLG - Liège België
Gewijzigd: 23-06-2018 17:50
Licht bewolkt  
Licht bewolkt  
   Wind: WNW 7.4 km/h
Wind: WNW 7.4 km/h
Temperatuur: 18°C
Dauwpunt: 9°C
Vochtigheid: 56%
Barometer: 1026 hPa
Satelliet beelden: Licht bewolkt
Zicht: meer dan 10 km
Bewolking: Licht bewolkt 914 m
EBLG 231550Z 30004KT 250V350 9999 FEW030 18/09 Q1026 NOSIG
EDDK - Köln/Bonn Duitsland
Gewijzigd: 23-06-2018 17:50
Grotendeels bewolkt  
Grotendeels bewolkt  
   Wind: NW 14.8 km/h
Wind: NW 14.8 km/h
Temperatuur: 16°C
Dauwpunt: 9°C
Vochtigheid: 63%
Barometer: 1025 hPa
Satelliet beelden: Grotendeels bewolkt
Zicht: meer dan 10 km
Bewolking: Licht bewolkt 1067 m,
Grotendeels bewolkt 1676 m
EDDK 231550Z 31008KT 280V340 9999 FEW035 BKN055 16/09 Q1025 NOSIG
EDDL - Düsseldorf Duitsland
Gewijzigd: 23-06-2018 17:50
Grotendeels bewolkt  
Grotendeels bewolkt  
   Wind: NW 14.8 km/h
Wind: NW 14.8 km/h
Temperatuur: 18°C
Dauwpunt: 9°C
Vochtigheid: 56%
Barometer: 1025 hPa
Satelliet beelden: Grotendeels bewolkt
Zicht: meer dan 10 km
Bewolking: Gedeeltelijk bewolkt 1219 m,
Grotendeels bewolkt 1829 m
EDDL 231550Z 31008KT 280V350 9999 SCT040 BKN060 18/09 Q1025 NOSIG
EHEH - Eindhoven Nederland
Gewijzigd: 23-06-2018 17:55
Grotendeels bewolkt  
Grotendeels bewolkt  
   Wind: NNW 7.4 km/h
Wind: NNW 7.4 km/h
Temperatuur: 20°C
Dauwpunt: 8°C
Vochtigheid: 46%
Barometer: 1025 hPa
Satelliet beelden: Grotendeels bewolkt
Zicht: meer dan 10 km
Bewolking: Grotendeels bewolkt 1463 m,
Grotendeels bewolkt 1707 m,
Grotendeels bewolkt 2073 m
EHEH 231555Z AUTO 34004KT 220V030 9999 BKN048 BKN056 BKN068 20/08 Q1025 BLU VRB03KT 9999 SCT035 BKN230
ELLX - Luxemburg Luxemburg
Gewijzigd: 23-06-2018 17:50
Grotendeels bewolkt  
Grotendeels bewolkt  
   Wind: Noorden 22.2 km/h
Wind: Noorden 22.2 km/h
Temperatuur: 16°C
Dauwpunt: 8°C
Vochtigheid: 59%
Barometer: 1026 hPa
Satelliet beelden: Grotendeels bewolkt
Zicht: meer dan 10 km
Bewolking: Licht bewolkt 1036 m,
Grotendeels bewolkt 1219 m
ELLX 231550Z 35012KT 9999 FEW034 BKN040 16/08 Q1026 NOSIG
EGLL - London England
Gewijzigd: 23-06-2018 17:50
Helder  
Helder  
   Wind: WNW 11.1 km/h
Wind: WNW 11.1 km/h
Temperatuur: 22°C
Dauwpunt: 4°C
Vochtigheid: 31%
Barometer: 1027 hPa
Satelliet beelden: Helder
Zicht: meer dan 10 km
Bewolking: Helder
EGLL 231550Z AUTO 29006KT 270V360 9999 NCD 22/04 Q1027 NOSIG
EBAW - Antwerpen België
Gewijzigd: 23-06-2018 17:50
Helder  
Helder  
   Wind: WNW 16.7 km/h
Wind: WNW 16.7 km/h
Temperatuur: 21°C
Dauwpunt: 7°C
Vochtigheid: 40%
Barometer: 1026 hPa
Zicht: meer dan 10 km
Bewolking: Helder
EBAW 231550Z 30009KT 250V320 CAVOK 21/07 Q1026 NOSIG
EBOS - Oostende België
Gewijzigd: 23-06-2018 17:50
Licht bewolkt  
Licht bewolkt  
   Wind: WNW 16.7 km/h
Wind: WNW 16.7 km/h
Temperatuur: 17°C
Dauwpunt: 11°C
Vochtigheid: 68%
Barometer: 1027 hPa
Satelliet beelden: Licht bewolkt
Zicht: meer dan 10 km
Bewolking: Licht bewolkt 1219 m
EBOS 231550Z 30009KT 9999 FEW040 17/11 Q1027 NOSIG
LEAL - La Nucia Spanje
Gewijzigd: 23-06-2018 18:00
Helder  
Helder  
   Wind: Oosten 14.8 km/h
Wind: Oosten 14.8 km/h
Temperatuur: 28°C
Gevoelstemperatuur: 28°C
Dauwpunt: 17°C
Vochtigheid: 51%
Barometer: 1017 hPa
Zicht: meer dan 10 km
Bewolking: Helder
LEAL 231600Z 10008KT 050V160 CAVOK 28/17 Q1017 NOSIG
TNCA - Oranjestad Aruba
Gewijzigd: 23-06-2018 18:00
Gedeeltelijk bewolkt  
Gedeeltelijk bewolkt  
   Wind: Oosten 38.9 km/h
Wind: Oosten 38.9 km/h
Temperatuur: 31°C
Gevoelstemperatuur: 34°C
Dauwpunt: 22°C
Vochtigheid: 59%
Barometer: 1014 hPa
Satelliet beelden: Gedeeltelijk bewolkt
Zicht: meer dan 10 km
Bewolking: Gedeeltelijk bewolkt 671 m
TNCA 231600Z 10021KT 9999 SCT022 31/22 Q1014 NOSIG
TNCC - Willemstad Curacao
Gewijzigd: 23-06-2018 18:00
Licht bewolkt  
Licht bewolkt  
   Wind: Oosten 33.3 km/h
Wind: Oosten 33.3 km/h
Temperatuur: 30°C
Gevoelstemperatuur: 34°C
Dauwpunt: 23°C
Vochtigheid: 66%
Barometer: 1015 hPa
Satelliet beelden: Licht bewolkt
Zicht: meer dan 10 km
Bewolking: Licht bewolkt 762 m
TNCC 231600Z 10018KT 9999 FEW025 30/23 Q1015 NOSIG
MTPP - Port au Prince Haitië
Gewijzigd: 23-06-2018 18:00
Gedeeltelijk bewolkt  
Gedeeltelijk bewolkt  
   Wind: Oosten 22.2 km/h<br />Gust to 22.2 km/h
Wind: Oosten 22.2 km/h
Gust to 22.2 km/h
Temperatuur: 33°C
Gevoelstemperatuur: 37°C
Dauwpunt: 22°C
Vochtigheid: 52%
Barometer: 1016 hPa
Satelliet beelden: Gedeeltelijk bewolkt
Zicht: meer dan 10 km
Bewolking: Gedeeltelijk bewolkt 793 m
MTPP 231600Z 09012G24KT 9999 SCT026TCU 33/22 Q1016 A3001 RMK/TCU/SSW
ENVA - Trondheim Noorwegen
Gewijzigd: 23-06-2018 17:50
Nabijgelegen buien, Grotendeels bewolkt  
Nabijgelegen buien, Grotendeels bewolkt  
   Wind: Westen 20.4 km/h
Wind: Westen 20.4 km/h
Temperatuur: 11°C
Dauwpunt: 9°C
Vochtigheid: 88%
Barometer: 1014 hPa
Satelliet beelden: Grotendeels bewolkt
Zicht: meer dan 10 km
Bewolking: Licht bewolkt 518 m,
Gedeeltelijk bewolkt 914 m,
Grotendeels bewolkt 1433 m
ENVA 231550Z 26011KT 9999 VCSH FEW017 SCT030 BKN047 11/09 Q1014 RMK WIND 670FT 29011KT
ENBO - Bodø Noorwegen
Gewijzigd: 23-06-2018 17:50
Wat regen mogelijk, Motregen, Bewolking  
Wat regen mogelijk, Motregen, Bewolking  
   Wind: Westen 33.3 km/h
Wind: Westen 33.3 km/h
Temperatuur: 8°C
Voelt als: 4°C
Dauwpunt: 8°C
Vochtigheid: 100%
Barometer: 1008 hPa
Satelliet beelden: Bewolking
Zicht: 8 km
Bewolking: Licht bewolkt 122 m,
Gedeeltelijk bewolkt 213 m,
Bewolking 366 m
ENBO 231550Z 27018KT 8000 -RADZ FEW004 SCT007 OVC012 08/08 Q1008
ETNG - Geilenkirchen Duitsland
Gewijzigd: 22-06-2018 16:50
Verouderd
Gedeeltelijk bewolkt  
Gedeeltelijk bewolkt  
   Wind: Westen 31.5 km/h
Wind: Westen 31.5 km/h
Temperatuur: 16°C
Dauwpunt: 9°C
Vochtigheid: 63%
Barometer: 1027 hPa
Satelliet beelden: Gedeeltelijk bewolkt
Zicht: meer dan 10 km
Bewolking: Gedeeltelijk bewolkt 914 m,
Gedeeltelijk bewolkt 2134 m
ETNG 221450Z 28017KT 9999 SCT030 SCT070 16/09 Q1027 NOSIG
 

Script ontwikkeld door  Saratoga-weather.org Aangepast voor de template door  Weerstation Leuven

U vindt ons ook hier:

Het Weer Aktueel

UK Metoffice

European Weather Network

WeatherCloud

Weather Underground

Benelux Weer Netwerk

AWEKAS

WeatherlinkIP

Citizen Weather Observer Program (CWOP)

HAMweather, WeatherForYou, PWS Weather

Apparatuur in gebruik:

Hardwareleverancier
Weerhuisje

Weerstation
Vantage Pro2+ +UV

Weercomputer's
alix3d2 & wl330n

Weerprogramma's
Smartbedded

Satelliet NOAA's
WRX137 & KX137

Satelliet Eumetcast
Ayecka SR1 & Triax

Bliksemdetectie
Boltek StormTracker

Webleverancier
VPS Linux V80

Weerhuisje

Vantage Pro2+ +UV

alix3d2 & wl330n

Smartbedded

WRX137 & KX137

Ayecka SR1 & Triax

Boltek StormTracker

VPS Linux V80